sensor_id;sensor_type;location;lat;lon;timestamp;pressure;altitude;pressure_sealevel;temperature;humidity
63115;BME280;49208;50.874;6.466;2022-12-24T11:14:15;100209.66;;;10.04;100.00
63115;BME280;49208;50.874;6.466;2022-12-24T11:16:48;100207.72;;;10.08;100.00
63115;BME280;49208;50.874;6.466;2022-12-24T11:19:22;100198.84;;;10.09;100.00
63115;BME280;49208;50.874;6.466;2022-12-24T11:21:57;100201.50;;;10.09;100.00
63115;BME280;49208;50.874;6.466;2022-12-24T11:24:27;100200.59;;;10.08;100.00
63115;BME280;49208;50.874;6.466;2022-12-24T11:26:53;100199.75;;;10.08;100.00
63115;BME280;49208;50.874;6.466;2022-12-24T11:29:24;100205.13;;;10.06;100.00
63115;BME280;49208;50.874;6.466;2022-12-24T11:31:50;100206.19;;;10.02;100.00
63115;BME280;49208;50.874;6.466;2022-12-24T11:34:29;100213.34;;;10.00;100.00
63115;BME280;49208;50.874;6.466;2022-12-24T11:37:23;100213.22;;;10.03;100.00
63115;BME280;49208;50.874;6.466;2022-12-24T11:42:33;100217.84;;;10.22;100.00
63115;BME280;49208;50.874;6.466;2022-12-24T11:45:04;100209.69;;;10.26;99.17
63115;BME280;49208;50.874;6.466;2022-12-24T11:47:35;100216.81;;;10.26;99.15
63115;BME280;49208;50.874;6.466;2022-12-24T11:50:21;100213.28;;;10.25;98.21
63115;BME280;49208;50.874;6.466;2022-12-24T11:52:51;100216.00;;;10.24;98.43
63115;BME280;49208;50.874;6.466;2022-12-24T11:58:15;100202.06;;;10.17;98.78
63115;BME280;49208;50.874;6.466;2022-12-24T12:00:44;100208.25;;;10.18;98.73
63115;BME280;49208;50.874;6.466;2022-12-24T12:03:29;100205.59;;;10.18;97.99
63115;BME280;49208;50.874;6.466;2022-12-24T12:05:59;100217.09;;;10.18;98.40
63115;BME280;49208;50.874;6.466;2022-12-24T12:08:27;100211.72;;;10.20;97.18
63115;BME280;49208;50.874;6.466;2022-12-24T12:10:56;100223.19;;;10.22;96.57
63115;BME280;49208;50.874;6.466;2022-12-24T12:13:28;100224.78;;;10.26;95.82
63115;BME280;49208;50.874;6.466;2022-12-24T12:18:56;100222.00;;;10.29;94.85
63115;BME280;49208;50.874;6.466;2022-12-24T12:21:43;100231.63;;;10.33;95.83
63115;BME280;49208;50.874;6.466;2022-12-24T12:24:35;100234.16;;;10.38;95.09
63115;BME280;49208;50.874;6.466;2022-12-24T12:27:31;100231.16;;;10.45;94.78
63115;BME280;49208;50.874;6.466;2022-12-24T12:30:04;100243.75;;;10.64;94.79
63115;BME280;49208;50.874;6.466;2022-12-24T12:32:41;100242.00;;;10.86;93.90
63115;BME280;49208;50.874;6.466;2022-12-24T12:35:21;100243.72;;;11.09;92.52
63115;BME280;49208;50.874;6.466;2022-12-24T12:38:03;100243.09;;;11.25;91.56
63115;BME280;49208;50.874;6.466;2022-12-24T12:51:41;100252.25;;;11.40;90.49
63115;BME280;49208;50.874;6.466;2022-12-24T12:57:03;100250.69;;;11.34;90.40
63115;BME280;49208;50.874;6.466;2022-12-24T12:59:32;100236.16;;;11.21;90.79
63115;BME280;49208;50.874;6.466;2022-12-24T13:20:48;100264.38;;;10.10;93.57
63115;BME280;49208;50.874;6.466;2022-12-24T13:23:18;100263.78;;;10.02;94.58
63115;BME280;49208;50.874;6.466;2022-12-24T13:25:46;100266.63;;;9.97;95.11
63115;BME280;49208;50.874;6.466;2022-12-24T13:28:30;100268.69;;;9.89;95.72
63115;BME280;49208;50.874;6.466;2022-12-24T13:38:51;100266.16;;;9.86;97.67
63115;BME280;49208;50.874;6.466;2022-12-24T13:44:15;100279.09;;;9.95;98.36
63115;BME280;49208;50.874;6.466;2022-12-24T13:49:16;100284.00;;;10.07;98.18
63115;BME280;49208;50.874;6.466;2022-12-24T13:51:44;100281.16;;;10.12;97.79
63115;BME280;49208;50.874;6.466;2022-12-24T13:54:11;100281.06;;;10.15;97.17
63115;BME280;49208;50.874;6.466;2022-12-24T13:56:38;100280.06;;;10.18;96.66
63115;BME280;49208;50.874;6.466;2022-12-24T13:59:35;100280.13;;;10.16;96.91
63115;BME280;49208;50.874;6.466;2022-12-24T14:02:02;100281.19;;;10.10;97.03
63115;BME280;49208;50.874;6.466;2022-12-24T14:04:31;100282.31;;;10.05;97.03
63115;BME280;49208;50.874;6.466;2022-12-24T14:06:59;100286.19;;;9.96;96.99
63115;BME280;49208;50.874;6.466;2022-12-24T14:09:26;100275.69;;;9.91;97.14
63115;BME280;49208;50.874;6.466;2022-12-24T14:14:31;100277.75;;;9.83;96.99
63115;BME280;49208;50.874;6.466;2022-12-24T14:16:59;100284.22;;;9.76;97.50
63115;BME280;49208;50.874;6.466;2022-12-24T14:19:30;100294.19;;;9.69;98.01
63115;BME280;49208;50.874;6.466;2022-12-24T14:22:02;100284.63;;;9.64;98.09
63115;BME280;49208;50.874;6.466;2022-12-24T14:24:34;100285.63;;;9.61;98.68
63115;BME280;49208;50.874;6.466;2022-12-24T14:27:23;100294.59;;;9.57;98.93
63115;BME280;49208;50.874;6.466;2022-12-24T14:29:52;100294.81;;;9.51;99.53
63115;BME280;49208;50.874;6.466;2022-12-24T14:32:20;100293.22;;;9.45;99.63
63115;BME280;49208;50.874;6.466;2022-12-24T14:34:46;100293.44;;;9.39;100.00
63115;BME280;49208;50.874;6.466;2022-12-24T14:37:12;100296.25;;;9.35;100.00
63115;BME280;49208;50.874;6.466;2022-12-24T14:39:42;100300.78;;;9.31;100.00
63115;BME280;49208;50.874;6.466;2022-12-24T14:42:42;100307.09;;;9.27;100.00
63115;BME280;49208;50.874;6.466;2022-12-24T14:48:11;100311.72;;;9.22;100.00
63115;BME280;49208;50.874;6.466;2022-12-24T14:56:18;100325.47;;;9.06;100.00
63115;BME280;49208;50.874;6.466;2022-12-24T14:58:45;100323.81;;;9.02;100.00
63115;BME280;49208;50.874;6.466;2022-12-24T15:01:26;100330.13;;;8.98;100.00
63115;BME280;49208;50.874;6.466;2022-12-24T15:06:35;100333.13;;;8.87;100.00
63115;BME280;49208;50.874;6.466;2022-12-24T15:09:01;100337.75;;;8.81;100.00
63115;BME280;49208;50.874;6.466;2022-12-24T15:11:27;100338.75;;;8.77;100.00
63115;BME280;49208;50.874;6.466;2022-12-24T15:13:55;100352.16;;;8.74;100.00
63115;BME280;49208;50.874;6.466;2022-12-24T15:16:24;100358.34;;;8.73;100.00
63115;BME280;49208;50.874;6.466;2022-12-24T15:19:05;100357.53;;;8.70;100.00
63115;BME280;49208;50.874;6.466;2022-12-24T15:21:41;100362.88;;;8.69;100.00
63115;BME280;49208;50.874;6.466;2022-12-24T15:24:33;100355.84;;;8.68;100.00
63115;BME280;49208;50.874;6.466;2022-12-24T15:27:00;100362.03;;;8.67;100.00
63115;BME280;49208;50.874;6.466;2022-12-24T15:29:31;100360.31;;;8.66;100.00
63115;BME280;49208;50.874;6.466;2022-12-24T15:31:59;100365.66;;;8.64;100.00
63115;BME280;49208;50.874;6.466;2022-12-24T15:34:34;100372.72;;;8.65;100.00
63115;BME280;49208;50.874;6.466;2022-12-24T15:37:06;100383.25;;;8.67;100.00
63115;BME280;49208;50.874;6.466;2022-12-24T15:39:38;100392.94;;;8.69;100.00
63115;BME280;49208;50.874;6.466;2022-12-24T15:42:06;100377.88;;;8.70;100.00
63115;BME280;49208;50.874;6.466;2022-12-24T15:44:41;100388.53;;;8.68;100.00
63115;BME280;49208;50.874;6.466;2022-12-24T15:47:15;100381.59;;;8.64;100.00
63115;BME280;49208;50.874;6.466;2022-12-24T15:49:44;100387.81;;;8.63;100.00
63115;BME280;49208;50.874;6.466;2022-12-24T15:52:13;100389.69;;;8.60;100.00
63115;BME280;49208;50.874;6.466;2022-12-24T15:54:47;100390.69;;;8.56;100.00
63115;BME280;49208;50.874;6.466;2022-12-24T15:57:29;100383.69;;;8.53;100.00
63115;BME280;49208;50.874;6.466;2022-12-24T15:59:57;100387.19;;;8.54;100.00
63115;BME280;49208;50.874;6.466;2022-12-24T16:04:48;100385.53;;;8.49;100.00
63115;BME280;49208;50.874;6.466;2022-12-24T16:07:24;100385.72;;;8.43;100.00
63115;BME280;49208;50.874;6.466;2022-12-24T16:09:50;100377.06;;;8.35;100.00
63115;BME280;49208;50.874;6.466;2022-12-24T16:12:18;100375.50;;;8.28;100.00
63115;BME280;49208;50.874;6.466;2022-12-24T16:14:50;100371.38;;;8.18;100.00
63115;BME280;49208;50.874;6.466;2022-12-24T16:17:22;100374.22;;;8.10;100.00
63115;BME280;49208;50.874;6.466;2022-12-24T16:19:53;100366.47;;;8.01;100.00
63115;BME280;49208;50.874;6.466;2022-12-24T16:22:21;100378.13;;;7.95;100.00
63115;BME280;49208;50.874;6.466;2022-12-24T16:24:56;100374.81;;;7.87;100.00
63115;BME280;49208;50.874;6.466;2022-12-24T16:27:22;100380.31;;;7.79;100.00
63115;BME280;49208;50.874;6.466;2022-12-24T16:29:47;100384.03;;;7.72;100.00
63115;BME280;49208;50.874;6.466;2022-12-24T16:32:33;100389.50;;;7.64;100.00
63115;BME280;49208;50.874;6.466;2022-12-24T16:35:00;100388.78;;;7.58;100.00
63115;BME280;49208;50.874;6.466;2022-12-24T16:37:26;100384.53;;;7.51;100.00
63115;BME280;49208;50.874;6.466;2022-12-24T16:39:52;100386.44;;;7.45;100.00
63115;BME280;49208;50.874;6.466;2022-12-24T16:42:18;100380.34;;;7.40;100.00
63115;BME280;49208;50.874;6.466;2022-12-24T16:45:02;100383.13;;;7.36;100.00
63115;BME280;49208;50.874;6.466;2022-12-24T16:47:30;100382.31;;;7.32;100.00
63115;BME280;49208;50.874;6.466;2022-12-24T16:49:57;100394.81;;;7.25;100.00
63115;BME280;49208;50.874;6.466;2022-12-24T16:52:25;100390.53;;;7.20;100.00
63115;BME280;49208;50.874;6.466;2022-12-24T16:54:52;100388.84;;;7.16;100.00
63115;BME280;49208;50.874;6.466;2022-12-24T16:57:19;100394.22;;;7.14;100.00
63115;BME280;49208;50.874;6.466;2022-12-24T16:59:45;100396.03;;;7.12;100.00
63115;BME280;49208;50.874;6.466;2022-12-24T17:02:16;100402.19;;;7.13;100.00
63115;BME280;49208;50.874;6.466;2022-12-24T17:04:42;100402.19;;;7.13;100.00
63115;BME280;49208;50.874;6.466;2022-12-24T17:07:12;100413.63;;;7.13;100.00
63115;BME280;49208;50.874;6.466;2022-12-24T17:09:38;100410.16;;;7.11;100.00
63115;BME280;49208;50.874;6.466;2022-12-24T17:12:03;100412.78;;;7.11;100.00
63115;BME280;49208;50.874;6.466;2022-12-24T17:14:29;100409.28;;;7.11;100.00
63115;BME280;49208;50.874;6.466;2022-12-24T17:16:54;100403.13;;;7.10;100.00
63115;BME280;49208;50.874;6.466;2022-12-24T17:19:20;100398.66;;;7.12;100.00
63115;BME280;49208;50.874;6.466;2022-12-24T17:21:45;100393.41;;;7.11;100.00
63115;BME280;49208;50.874;6.466;2022-12-24T17:24:10;100386.31;;;7.11;100.00
63115;BME280;49208;50.874;6.466;2022-12-24T17:26:36;100379.31;;;7.10;100.00
63115;BME280;49208;50.874;6.466;2022-12-24T17:29:02;100384.66;;;7.05;100.00
63115;BME280;49208;50.874;6.466;2022-12-24T17:31:30;100393.66;;;7.00;100.00
63115;BME280;49208;50.874;6.466;2022-12-24T17:33:55;100392.81;;;6.96;100.00
63115;BME280;49208;50.874;6.466;2022-12-24T17:36:21;100393.75;;;6.95;100.00
63115;BME280;49208;50.874;6.466;2022-12-24T17:38:47;100387.66;;;6.90;100.00
63115;BME280;49208;50.874;6.466;2022-12-24T17:41:14;100398.34;;;6.85;100.00
63115;BME280;49208;50.874;6.466;2022-12-24T17:43:41;100389.59;;;6.82;100.00
63115;BME280;49208;50.874;6.466;2022-12-24T17:46:09;100389.63;;;6.80;100.00
63115;BME280;49208;50.874;6.466;2022-12-24T17:48:35;100395.84;;;6.78;100.00
63115;BME280;49208;50.874;6.466;2022-12-24T17:51:04;100397.66;;;6.76;100.00
63115;BME280;49208;50.874;6.466;2022-12-24T17:53:34;100393.28;;;6.75;100.00
63115;BME280;49208;50.874;6.466;2022-12-24T17:56:00;100402.13;;;6.72;100.00
63115;BME280;49208;50.874;6.466;2022-12-24T17:58:26;100408.34;;;6.71;100.00
63115;BME280;49208;50.874;6.466;2022-12-24T18:00:51;100419.88;;;6.68;100.00
63115;BME280;49208;50.874;6.466;2022-12-24T18:03:19;100431.34;;;6.66;100.00
63115;BME280;49208;50.874;6.466;2022-12-24T18:05:44;100427.00;;;6.63;100.00
63115;BME280;49208;50.874;6.466;2022-12-24T18:08:10;100434.19;;;6.58;100.00
63115;BME280;49208;50.874;6.466;2022-12-24T18:10:35;100439.56;;;6.54;100.00
63115;BME280;49208;50.874;6.466;2022-12-24T18:13:01;100441.38;;;6.50;100.00
63115;BME280;49208;50.874;6.466;2022-12-24T18:15:26;100436.22;;;6.44;100.00
63115;BME280;49208;50.874;6.466;2022-12-24T18:17:53;100438.03;;;6.40;100.00
63115;BME280;49208;50.874;6.466;2022-12-24T18:20:19;100432.81;;;6.37;100.00
